Aduana, Mexico

11:16 PM EST on December 10, 2016 (GMT -0500)
Paseo del mar Residencial Campestre Cancun | | Change Station

Elev 26 ft 21.10 °N, 86.85 °W | Updated 8 seconds ago

Rain
Rain
72.1 °F
Feels Like 72.1 °F
N
0.0
Wind Variable Wind from WNW
Gusts 0.0 mph

Today
High -- | Low -- °F
--% Chance of Precip.
Yesterday
High -- | Low -- °F
Precip. -- in
Pressure 30.10 in
Visibility 7.0 miles
Clouds Scattered Clouds 1500 ft
Scattered Clouds 8000 ft
Dew Point 70 °F
Humidity 93%
Rainfall 4.15 in
Snow Depth Not available.
7:14 AM 6:07 PM
Waxing Gibbous, 88% visible
METAR MMCZ 110350Z 00000KT 7SM SCT015TCU SCT080 24/22 A3010 RMK 8/250 CI
Pressure 30.10 in
Visibility 7.0 miles
Clouds Scattered Clouds 1500 ft
Scattered Clouds 8000 ft
Dew Point 70 °F
Humidity 93%
Rainfall 4.15 in
Snow Depth Not available.
7:14 AM 6:07 PM
Waxing Gibbous, 88% visible
METAR MMCZ 110350Z 00000KT 7SM SCT015TCU SCT080 24/22 A3010 RMK 8/250 CI

10-Day Weather Forecast

No radar image for this location.
×

Almanac

Astronomy

Dec. 10, 2016 Rise Set
Actual Time
Civil Twilight
Nautical Twilight
Astronomical Twilight
Moon
Length of Visible Light
Length of Day
Tomorrow will be .
, % of the Moon is Illuminated

Today's Extremes

Country Highs Country Lows

Community

WunderPhotos

Upload Photos

1,956,704 photos uploaded!

WunderBlog® & News

Nearby

Air Quality

  Air Quality AQ Index Pollutant
Not available.

Snow Depth

Station Depth Elevation

Earthquake Activity

City Distance Mag. Time & Date
Minimum magnitude displayed is 2.5.

Coastal Water Temperatures

Place Temperature

Stations

Nearby Weather Stations

Station Location Temp. Windchill Dew Point Humidity Wind Precip. Elev Updated Type